Time;durP1;ratioP1;P1;durP2;ratioP2;P2;SDS_P1;SDS_P2;PMS_P1;PMS_P2;Temp;Humidity;BMP_temperature;BMP_pressure;BME280_temperature;BME280_humidity;BME280_pressure;Samples;Min_cycle;Max_cycle;Signal;HPM_P1;HPM_P2
2023/09/07 00:00:14;;;;;;;1.42;1.33;;;29.20;68.00;;;;;;6104579;23;20009;-73
2023/09/07 00:02:40;;;;;;;1.30;1.20;;;;;;;;;;6094722;23;20057;-73
2023/09/07 00:05:07;;;;;;;1.60;1.15;;;;;;;;;;6069306;23;20002;-73
2023/09/07 00:07:33;;;;;;;1.40;1.30;;;;;;;;;;6104561;23;20379;-73
2023/09/07 00:09:59;;;;;;;1.65;1.42;;;;;;;;;;6104569;23;19998;-74
2023/09/07 00:12:26;;;;;;;1.42;1.20;;;;;;;;;;6104675;23;20029;-74
2023/09/07 00:14:53;;;;;;;1.42;1.33;;;29.10;68.00;;;;;;6105161;23;20062;-74
2023/09/07 00:17:19;;;;;;;1.45;1.35;;;;;;;;;;6104525;23;19998;-75
2023/09/07 00:19:48;;;;;;;2.20;1.38;;;;;;;;;;6104444;23;19998;-73
2023/09/07 00:22:14;;;;;;;1.40;1.30;;;;;;;;;;6104591;23;20006;-75
2023/09/07 00:24:40;;;;;;;1.27;1.20;;;;;;;;;;6104505;23;20030;-73
2023/09/07 00:27:07;;;;;;;1.63;1.40;;;;;;;;;;6106257;23;20009;-73
2023/09/07 00:29:34;;;;;;;1.38;1.27;;;;;;;;;;6097100;23;20010;-73
2023/09/07 00:32:00;;;;;;;1.40;1.30;;;;;;;;;;6106357;23;20005;-74
2023/09/07 00:34:26;;;;;;;1.40;1.10;;;;;;;;;;6106462;23;19998;-73
2023/09/07 00:36:52;;;;;;;1.17;1.08;;;;;;;;;;6106332;23;20002;-73
2023/09/07 00:39:17;;;;;;;1.23;1.15;;;;;;;;;;6096977;23;20062;-72
2023/09/07 00:41:43;;;;;;;1.70;1.60;;;;;;;;;;6106797;23;20006;-75
2023/09/07 00:44:09;;;;;;;1.73;1.20;;;;;;;;;;6106219;23;20099;-75
2023/09/07 00:46:36;;;;;;;1.40;1.30;;;;;;;;;;6106313;23;20002;-75
2023/09/07 00:49:04;;;;;;;1.67;1.52;;;28.80;67.70;;;;;;6106125;23;20102;-75
2023/09/07 00:51:30;;;;;;;1.38;1.27;;;;;;;;;;6106193;23;20021;-75
2023/09/07 00:53:56;;;;;;;1.30;1.20;;;;;;;;;;6106173;23;19998;-75
2023/09/07 00:56:23;;;;;;;1.20;1.10;;;;;;;;;;6096536;23;20003;-75
2023/09/07 00:58:50;;;;;;;1.65;1.48;;;;;;;;;;6096747;23;20154;-76
2023/09/07 01:01:16;;;;;;;1.42;1.33;;;;;;;;;;6096229;23;20005;-75
2023/09/07 01:03:42;;;;;;;1.48;1.38;;;;;;;;;;6105881;23;20010;-75
2023/09/07 01:06:15;;;;;;;1.20;1.10;;;28.80;69.20;;;;;;6105920;23;20014;-75
2023/09/07 01:08:53;;;;;;;1.60;1.50;;;28.70;63.40;;;;;;6106164;23;20115;-75
2023/09/07 01:11:20;;;;;;;1.52;1.30;;;28.80;67.20;;;;;;6106599;23;20022;-74
2023/09/07 01:13:46;;;;;;;1.40;1.30;;;;;;;;;;6106094;23;19999;-74
2023/09/07 01:16:13;;;;;;;1.20;1.10;;;;;;;;;;6105989;23;20025;-74
2023/09/07 01:18:42;;;;;;;1.38;1.08;;;28.70;63.50;;;;;;6105918;23;19998;-74
2023/09/07 01:21:09;;;;;;;1.38;1.15;;;28.60;67.90;;;;;;6105891;23;20001;-74
2023/09/07 01:23:40;;;;;;;1.58;1.48;;;28.70;63.60;;;;;;6105938;23;20025;-74
2023/09/07 01:26:08;;;;;;;1.33;1.23;;;28.60;69.10;;;;;;6105553;23;20134;-74
2023/09/07 01:28:34;;;;;;;1.40;1.30;;;;;;;;;;6105609;23;20014;-74
2023/09/07 01:31:01;;;;;;;1.30;1.20;;;;;;;;;;6105680;23;19998;-73
2023/09/07 01:33:27;;;;;;;1.30;1.20;;;;;;;;;;6096156;23;20009;-74
2023/09/07 01:35:53;;;;;;;1.23;1.10;;;;;;;;;;6105694;23;20395;-75
2023/09/07 01:38:19;;;;;;;1.33;1.23;;;;;;;;;;6105538;23;19994;-73
2023/09/07 01:40:45;;;;;;;1.40;1.20;;;;;;;;;;6105748;23;20002;-73
2023/09/07 01:43:11;;;;;;;1.30;1.20;;;;;;;;;;6105621;23;20065;-73
2023/09/07 01:45:37;;;;;;;1.40;1.30;;;;;;;;;;6105718;23;20370;-73
2023/09/07 01:48:04;;;;;;;1.45;1.25;;;;;;;;;;6105920;23;20105;-73
2023/09/07 01:50:30;;;;;;;1.58;1.48;;;;;;;;;;6096130;23;20026;-74
2023/09/07 01:52:58;;;;;;;1.45;1.20;;;;;;;;;;6095669;23;20434;-74
2023/09/07 01:55:24;;;;;;;1.63;1.52;;;;;;;;;;6095998;23;20336;-74
2023/09/07 01:57:51;;;;;;;1.33;1.20;;;;;;;;;;6095584;23;20009;-74
2023/09/07 02:00:17;;;;;;;1.35;1.23;;;;;;;;;;6095958;23;19999;-74
2023/09/07 02:02:44;;;;;;;2.85;1.30;;;;;;;;;;6095469;23;20489;-74
2023/09/07 02:05:10;;;;;;;1.80;1.40;;;;;;;;;;6070729;23;20024;-75
2023/09/07 02:07:37;;;;;;;1.52;1.30;;;;;;;;;;6095934;23;20050;-72
2023/09/07 02:10:03;;;;;;;2.85;1.50;;;;;;;;;;6095743;23;20010;-72
2023/09/07 02:12:30;;;;;;;1.88;1.52;;;;;;;;;;6095743;23;20002;-72
2023/09/07 02:14:56;;;;;;;1.30;1.20;;;;;;;;;;6095394;23;20057;-72
2023/09/07 02:17:23;;;;;;;1.50;1.40;;;;;;;;;;6095488;23;20003;-73
2023/09/07 02:19:50;;;;;;;1.58;1.38;;;;;;;;;;6095383;23;20430;-73
2023/09/07 02:22:16;;;;;;;1.75;1.48;;;;;;;;;;6095179;23;20002;-73
2023/09/07 02:24:43;;;;;;;1.10;1.10;;;;;;;;;;6095232;23;20430;-73
2023/09/07 02:27:09;;;;;;;2.30;1.60;;;;;;;;;;6095584;23;20080;-73
2023/09/07 02:29:36;;;;;;;1.58;1.15;;;;;;;;;;6094965;23;20017;-73
2023/09/07 02:32:03;;;;;;;1.40;1.30;;;;;;;;;;6095445;23;20375;-72
2023/09/07 02:34:30;;;;;;;1.33;1.23;;;28.20;69.60;;;;;;6095137;23;20030;-73
2023/09/07 02:36:57;;;;;;;1.35;1.10;;;;;;;;;;6095625;23;20046;-73
2023/09/07 02:39:27;;;;;;;1.52;1.30;;;;;;;;;;6095331;23;20053;-73
2023/09/07 02:41:53;;;;;;;1.42;1.33;;;;;;;;;;6095432;23;20429;-73
2023/09/07 02:44:20;;;;;;;1.20;1.08;;;;;;;;;;6095365;23;20006;-73
2023/09/07 02:46:46;;;;;;;2.35;1.58;;;;;;;;;;6095486;23;20008;-74
2023/09/07 02:49:13;;;;;;;1.30;1.20;;;;;;;;;;6095399;23;20015;-74
2023/09/07 02:51:40;;;;;;;1.33;1.23;;;;;;;;;;6070299;23;20373;-75
2023/09/07 02:54:06;;;;;;;1.90;1.40;;;;;;;;;;6095573;23;20065;-75
2023/09/07 02:56:33;;;;;;;1.38;1.27;;;;;;;;;;6095394;23;20004;-75
2023/09/07 02:59:00;;;;;;;1.42;1.00;;;;;;;;;;6095426;23;20074;-75
2023/09/07 03:01:26;;;;;;;1.75;1.30;;;;;;;;;;6095645;23;20077;-75
2023/09/07 03:03:52;;;;;;;1.30;1.20;;;;;;;;;;6095888;23;20014;-74
2023/09/07 03:06:20;;;;;;;1.65;1.40;;;;;;;;;;6095292;23;20007;-74
2023/09/07 03:08:46;;;;;;;1.40;1.30;;;;;;;;;;6095954;23;20014;-73
2023/09/07 03:11:12;;;;;;;1.50;1.40;;;;;;;;;;6095610;23;20025;-74
2023/09/07 03:13:39;;;;;;;1.67;1.38;;;;;;;;;;6095654;23;20038;-74
2023/09/07 03:16:05;;;;;;;1.27;1.10;;;;;;;;;;6095655;23;20010;-75
2023/09/07 03:18:32;;;;;;;1.33;1.20;;;;;;;;;;6095372;23;20025;-75
2023/09/07 03:21:00;;;;;;;1.77;1.40;;;27.60;69.90;;;;;;6095335;23;20053;-75
2023/09/07 03:23:31;;;;;;;1.65;1.27;;;28.00;64.40;;;;;;6095009;23;20065;-75
2023/09/07 03:25:58;;;;;;;1.20;1.10;;;;;;;;;;6095441;23;20002;-75
2023/09/07 03:28:27;;;;;;;1.52;1.30;;;;;;;;;;6095087;23;20090;-75
2023/09/07 03:30:54;;;;;;;1.60;1.50;;;;;;;;;;6095333;23;20006;-75
2023/09/07 03:33:21;;;;;;;1.90;1.30;;;;;;;;;;6095980;23;20006;-74
2023/09/07 03:35:47;;;;;;;1.27;1.17;;;;;;;;;;6094829;23;20014;-73
2023/09/07 03:38:14;;;;;;;1.38;1.27;;;;;;;;;;6095123;23;20006;-73
2023/09/07 03:40:40;;;;;;;1.52;1.42;;;;;;;;;;6094705;23;20002;-74
2023/09/07 03:43:07;;;;;;;1.33;1.20;;;;;;;;;;6094741;23;20503;-72
2023/09/07 03:45:33;;;;;;;2.05;1.55;;;;;;;;;;6095355;23;20003;-73
2023/09/07 03:48:00;;;;;;;1.58;1.48;;;;;;;;;;6094725;23;20010;-73
2023/09/07 03:50:26;;;;;;;1.75;1.27;;;;;;;;;;6095268;23;20109;-73
2023/09/07 03:52:53;;;;;;;1.45;1.35;;;;;;;;;;6094776;23;20049;-73
2023/09/07 03:55:19;;;;;;;2.22;1.48;;;;;;;;;;6095183;23;20003;-72
2023/09/07 03:57:45;;;;;;;1.77;1.67;;;;;;;;;;6104549;23;20003;-72
2023/09/07 04:00:12;;;;;;;1.52;1.30;;;;;;;;;;6104685;23;20003;-72
2023/09/07 04:02:38;;;;;;;2.75;1.48;;;;;;;;;;6106889;23;20011;-74
2023/09/07 04:05:07;;;;;;;1.58;1.48;;;;;;;;;;6106663;23;20076;-74
2023/09/07 04:07:33;;;;;;;1.87;1.63;;;;;;;;;;6106369;23;20393;-74
2023/09/07 04:09:59;;;;;;;1.23;1.13;;;;;;;;;;6106522;23;20026;-74
2023/09/07 04:12:25;;;;;;;2.15;1.50;;;;;;;;;;6071109;23;20465;-75
2023/09/07 04:14:53;;;;;;;1.35;1.25;;;;;;;;;;6106694;23;20009;-74
2023/09/07 04:17:19;;;;;;;1.38;1.27;;;;;;;;;;6097027;23;20002;-75
2023/09/07 04:19:46;;;;;;;1.27;1.17;;;;;;;;;;6096645;23;20010;-75
2023/09/07 04:22:12;;;;;;;1.50;1.40;;;;;;;;;;6097057;23;20304;-75
2023/09/07 04:24:38;;;;;;;1.60;1.20;;;;;;;;;;6096558;23;20430;-75
2023/09/07 04:27:05;;;;;;;1.83;1.27;;;;;;;;;;6096969;23;20069;-75
2023/09/07 04:29:31;;;;;;;1.40;1.30;;;;;;;;;;6097092;23;20014;-74
2023/09/07 04:31:57;;;;;;;1.30;1.20;;;;;;;;;;6096496;23;20117;-74
2023/09/07 04:34:24;;;;;;;1.40;1.30;;;;;;;;;;6106373;23;20009;-74
2023/09/07 04:36:50;;;;;;;1.50;1.40;;;;;;;;;;6106107;23;20340;-74
2023/09/07 04:39:16;;;;;;;1.80;1.40;;;;;;;;;;6106316;23;20073;-74
2023/09/07 04:41:42;;;;;;;1.63;1.30;;;;;;;;;;6106213;23;20002;-74
2023/09/07 04:44:08;;;;;;;1.50;1.40;;;;;;;;;;6106192;23;20038;-74
2023/09/07 04:46:34;;;;;;;1.45;1.25;;;;;;;;;;6106151;23;19998;-74
2023/09/07 04:49:00;;;;;;;1.67;1.50;;;;;;;;;;6106118;23;20010;-74
2023/09/07 04:51:26;;;;;;;1.38;1.20;;;;;;;;;;6106176;23;20003;-74
2023/09/07 04:53:52;;;;;;;1.42;1.33;;;;;;;;;;6096305;23;20030;-74
2023/09/07 04:56:20;;;;;;;1.63;1.52;;;;;;;;;;6096308;23;20070;-74
2023/09/07 04:58:46;;;;;;;1.40;1.30;;;;;;;;;;6096913;23;20007;-74
2023/09/07 05:01:13;;;;;;;1.50;1.40;;;;;;;;;;6096427;23;20006;-75
2023/09/07 05:03:42;;;;;;;1.50;1.10;;;;;;;;;;6106044;23;20011;-76
2023/09/07 05:06:08;;;;;;;1.43;1.30;;;;;;;;;;6106051;23;20053;-76
2023/09/07 05:08:34;;;;;;;1.42;1.13;;;;;;;;;;6106009;23;20007;-74
2023/09/07 05:11:02;;;;;;;1.38;1.25;;;27.40;70.60;;;;;;6106157;23;20445;-72
2023/09/07 05:13:28;;;;;;;1.35;1.25;;;;;;;;;;6105998;23;20002;-73
2023/09/07 05:15:55;;;;;;;1.55;1.23;;;27.70;69.10;;;;;;6106000;23;20030;-74
2023/09/07 05:18:22;;;;;;;1.50;1.40;;;;;;;;;;6106057;23;20427;-73
2023/09/07 05:20:49;;;;;;;1.42;1.33;;;;;;;;;;6096654;23;20084;-72
2023/09/07 05:23:15;;;;;;;1.85;1.48;;;;;;;;;;6106957;23;20014;-74
2023/09/07 05:25:50;;;;;;;1.27;1.15;;;27.30;64.90;;;;;;6106039;23;20089;-72
2023/09/07 05:28:16;;;;;;;1.30;1.20;;;;;;;;;;6106319;23;20010;-74
2023/09/07 05:30:42;;;;;;;1.42;1.20;;;;;;;;;;6105846;23;20069;-75
2023/09/07 05:33:12;;;;;;;1.33;1.17;;;27.20;65.40;;;;;;6096373;23;20015;-76
2023/09/07 05:35:38;;;;;;;1.15;0.90;;;;;;;;;;6096405;23;20054;-74
2023/09/07 05:38:05;;;;;;;1.33;1.23;;;;;;;;;;6096173;23;20011;-73
2023/09/07 05:40:42;;;;;;;1.60;1.50;;;27.20;65.20;;;;;;6096320;23;20029;-73
2023/09/07 05:43:09;;;;;;;1.55;1.30;;;;;;;;;;6096307;23;19999;-73
2023/09/07 05:45:41;;;;;;;1.55;1.40;;;27.20;65.70;;;;;;6095953;23;20011;-73
2023/09/07 05:48:08;;;;;;;1.45;1.35;;;;;;;;;;6095792;23;20013;-74
2023/09/07 05:50:36;;;;;;;1.58;1.48;;;27.20;67.60;;;;;;6096131;23;20006;-74
2023/09/07 05:53:03;;;;;;;2.78;1.70;;;27.40;68.50;;;;;;6095886;23;19999;-75
2023/09/07 05:55:30;;;;;;;2.17;1.88;;;;;;;;;;6096297;23;20053;-74
2023/09/07 05:57:57;;;;;;;2.45;2.00;;;;;;;;;;6095947;23;20088;-75
2023/09/07 06:00:23;;;;;;;1.58;1.48;;;;;;;;;;6105472;23;19998;-75
2023/09/07 06:02:50;;;;;;;2.05;1.80;;;;;;;;;;6095584;23;20394;-74
2023/09/07 06:05:16;;;;;;;2.47;1.92;;;;;;;;;;6095771;23;20022;-74
2023/09/07 06:07:43;;;;;;;2.88;2.08;;;27.10;69.60;;;;;;6095946;23;20006;-74
2023/09/07 06:10:10;;;;;;;3.03;2.00;;;;;;;;;;6096017;23;19998;-74
2023/09/07 06:12:36;;;;;;;3.60;1.90;;;;;;;;;;6095581;23;19998;-75
2023/09/07 06:15:03;;;;;;;2.83;2.03;;;;;;;;;;6096282;23;20013;-76
2023/09/07 06:17:30;;;;;;;2.70;1.70;;;;;;;;;;6096467;23;20034;-74
2023/09/07 06:19:56;;;;;;;5.50;2.08;;;;;;;;;;6095640;23;20012;-73
2023/09/07 06:22:23;;;;;;;2.15;1.90;;;;;;;;;;6095783;23;20070;-73
2023/09/07 06:24:49;;;;;;;2.08;1.88;;;;;;;;;;6095889;23;20006;-73
2023/09/07 06:27:16;;;;;;;2.45;1.92;;;;;;;;;;6095905;23;20066;-73
2023/09/07 06:29:42;;;;;;;2.08;1.90;;;;;;;;;;6095516;23;20085;-73
2023/09/07 06:32:09;;;;;;;5.57;2.22;;;;;;;;;;6070634;23;20002;-75
2023/09/07 06:34:35;;;;;;;2.00;1.80;;;;;;;;;;6096026;23;20010;-73
2023/09/07 06:37:02;;;;;;;1.98;1.83;;;;;;;;;;6095560;23;20007;-74
2023/09/07 06:39:28;;;;;;;2.15;1.85;;;;;;;;;;6095796;23;20037;-74
2023/09/07 06:41:55;;;;;;;3.25;1.70;;;;;;;;;;6095554;23;20446;-74
2023/09/07 06:44:21;;;;;;;2.13;1.90;;;;;;;;;;6095379;23;20030;-73
2023/09/07 06:46:49;;;;;;;1.90;1.80;;;;;;;;;;6095506;23;20003;-73
2023/09/07 06:49:15;;;;;;;4.13;1.98;;;;;;;;;;6095539;23;20038;-74
2023/09/07 06:51:42;;;;;;;3.40;1.58;;;;;;;;;;6096334;23;20489;-73
2023/09/07 06:54:09;;;;;;;1.90;1.73;;;;;;;;;;6095497;23;20006;-74
2023/09/07 06:56:38;;;;;;;;;;;27.00;65.20;;;;;;6096190;23;20018;-75
2023/09/07 06:59:04;;;;;;;2.83;1.88;;;;;;;;;;6095993;23;19901;-74
2023/09/07 07:01:31;;;;;;;2.05;1.85;;;;;;;;;;6095761;23;20065;-74
2023/09/07 07:03:57;;;;;;;1.80;1.70;;;;;;;;;;6095296;23;20037;-75
2023/09/07 07:06:24;;;;;;;2.05;1.85;;;;;;;;;;6095816;23;20066;-73
2023/09/07 07:08:50;;;;;;;1.42;1.33;;;;;;;;;;6095342;23;20450;-73
2023/09/07 07:11:17;;;;;;;2.50;2.05;;;;;;;;;;6095408;23;20024;-73
2023/09/07 07:13:43;;;;;;;2.13;1.95;;;;;;;;;;6095722;23;20334;-72
2023/09/07 07:16:10;;;;;;;2.58;2.08;;;;;;;;;;6095671;23;20081;-72
2023/09/07 07:18:36;;;;;;;2.05;1.80;;;;;;;;;;6095262;23;20456;-72
2023/09/07 07:21:03;;;;;;;2.05;1.50;;;;;;;;;;6095615;23;20009;-72
2023/09/07 07:23:29;;;;;;;1.95;1.75;;;;;;;;;;6095596;23;20006;-73
2023/09/07 07:25:56;;;;;;;1.90;1.80;;;;;;;;;;6095178;23;20005;-73
2023/09/07 07:28:22;;;;;;;2.00;1.70;;;;;;;;;;6095028;23;20510;-73
2023/09/07 07:30:52;;;;;;;2.30;2.10;;;;;;;;;;6095252;23;20002;-73
2023/09/07 07:33:18;;;;;;;2.03;1.52;;;;;;;;;;6095345;23;20002;-73
2023/09/07 07:35:45;;;;;;;4.63;2.13;;;;;;;;;;6095088;23;20018;-73
2023/09/07 07:38:13;;;;;;;2.88;1.70;;;26.90;68.80;;;;;;6095594;23;20065;-73
2023/09/07 07:40:40;;;;;;;1.95;1.83;;;;;;;;;;6095496;23;20058;-73
2023/09/07 07:43:07;;;;;;;3.53;1.77;;;;;;;;;;6095103;23;19999;-73
2023/09/07 07:45:37;;;;;;;1.75;1.65;;;;;;;;;;6095149;23;20346;-72
2023/09/07 07:48:07;;;;;;;2.00;1.80;;;;;;;;;;6095384;23;20015;-73
2023/09/07 07:50:38;;;;;;;3.05;1.67;;;27.00;71.90;;;;;;6095687;23;20009;-72
2023/09/07 07:53:06;;;;;;;3.53;1.80;;;;;;;;;;6095304;23;20054;-72
2023/09/07 07:55:38;;;;;;;2.45;1.60;;;27.00;66.30;;;;;;6095000;23;20002;-72
2023/09/07 07:58:08;;;;;;;2.22;1.52;;;27.10;66.60;;;;;;6095410;23;20086;-72
2023/09/07 08:00:35;;;;;;;;;;;27.10;73.50;;;;;;6095577;23;19998;-72
2023/09/07 08:03:03;;;;;;;2.40;1.60;;;27.00;68.80;;;;;;6095222;23;19913;-72
2023/09/07 08:05:31;;;;;;;2.35;1.80;;;25.30;71.10;;;;;;6095484;23;20006;-72
2023/09/07 08:07:57;;;;;;;2.42;1.95;;;;;;;;;;6095338;23;20062;-71
2023/09/07 08:10:24;;;;;;;2.40;2.05;;;;;;;;;;6095110;23;19998;-71
2023/09/07 08:12:54;;;;;;;1.88;1.73;;;27.10;66.80;;;;;;6095022;23;20058;-72
2023/09/07 08:15:22;;;;;;;2.30;1.70;;;;;;;;;;6095377;23;19999;-72
2023/09/07 08:17:49;;;;;;;2.17;1.98;;;;;;;;;;6095506;23;20029;-73
2023/09/07 08:20:16;;;;;;;1.90;1.70;;;;;;;;;;6095306;23;20007;-73
2023/09/07 08:22:42;;;;;;;1.67;1.48;;;;;;;;;;6095057;23;20086;-73
2023/09/07 08:25:11;;;;;;;1.80;1.60;;;27.20;73.00;;;;;;6095441;23;20117;-72
2023/09/07 08:27:37;;;;;;;1.92;1.73;;;;;;;;;;6095393;23;20006;-73
2023/09/07 08:30:06;;;;;;;1.70;1.60;;;;;;;;;;6095472;23;20002;-73
2023/09/07 08:32:32;;;;;;;1.50;1.33;;;;;;;;;;6095208;23;20006;-73
2023/09/07 08:35:00;;;;;;;1.73;1.63;;;;;;;;;;6094975;23;20006;-73
2023/09/07 08:37:27;;;;;;;2.08;1.88;;;;;;;;;;6095229;23;20003;-73
2023/09/07 08:39:55;;;;;;;2.45;1.80;;;27.20;73.50;;;;;;6094947;23;20003;-73
2023/09/07 08:42:21;;;;;;;1.80;1.65;;;;;;;;;;6104709;23;20001;-72
2023/09/07 08:44:50;;;;;;;2.83;1.73;;;27.30;73.80;;;;;;6104754;23;20465;-72
2023/09/07 08:47:18;;;;;;;2.28;2.08;;;27.30;73.60;;;;;;6106318;23;20319;-72
2023/09/07 08:49:46;;;;;;;2.05;1.80;;;27.30;73.80;;;;;;6106883;23;20038;-75
2023/09/07 08:52:12;;;;;;;2.75;2.25;;;;;;;;;;6107692;23;19994;-73
2023/09/07 08:54:38;;;;;;;3.35;2.50;;;27.50;72.50;;;;;;6100971;23;20002;-74
2023/09/07 08:57:05;;;;;;;3.00;2.25;;;;;;;;;;6106774;23;20003;-73
2023/09/07 08:59:31;;;;;;;3.83;2.92;;;;;;;;;;6106858;23;20380;-74
2023/09/07 09:02:00;;;;;;;2.42;2.10;;;27.50;73.50;;;;;;6106324;23;20010;-74
2023/09/07 09:04:28;;;;;;;2.83;2.53;;;28.00;74.10;;;;;;6097202;23;20444;-74
2023/09/07 09:06:54;;;;;;;3.30;2.15;;;;;;;;;;6106468;23;20002;-75
2023/09/07 09:09:24;;;;;;;2.70;2.45;;;27.60;68.20;;;;;;6106441;23;20006;-75
2023/09/07 09:11:50;;;;;;;5.25;2.90;;;;;;;;;;6106618;23;20002;-74
2023/09/07 09:14:19;;;;;;;6.10;2.78;;;27.70;68.10;;;;;;6106652;23;19999;-74
2023/09/07 09:16:55;;;;;;;3.90;2.67;;;27.70;68.10;;;;;;6106555;23;20139;-75
2023/09/07 09:19:31;;;;;;;3.28;2.50;;;27.80;74.00;;;;;;6106732;23;20002;-74
2023/09/07 09:21:57;;;;;;;4.13;2.75;;;;;;;;;;6106396;23;19999;-74
2023/09/07 09:24:23;;;;;;;4.00;2.60;;;;;;;;;;6106481;23;20082;-74
2023/09/07 09:26:49;;;;;;;4.75;2.80;;;;;;;;;;6106228;23;20650;-75
2023/09/07 09:29:15;;;;;;;2.92;2.60;;;;;;;;;;6106063;23;20014;-74
2023/09/07 09:31:42;;;;;;;3.67;2.30;;;;;;;;;;6106272;23;20033;-75
2023/09/07 09:34:09;;;;;;;2.78;2.53;;;;;;;;;;6106728;23;20002;-74
2023/09/07 09:36:36;;;;;;;5.03;2.80;;;28.10;73.90;;;;;;6070913;23;20331;-74
2023/09/07 09:39:05;;;;;;;4.93;2.95;;;;;;;;;;6106093;23;20022;-74
2023/09/07 09:41:33;;;;;;;3.35;2.47;;;28.20;74.00;;;;;;6081252;23;19998;-73
2023/09/07 09:44:02;;;;;;;4.03;3.20;;;28.30;72.60;;;;;;6106153;23;20024;-74
2023/09/07 09:46:28;;;;;;;3.92;2.42;;;;;;;;;;6096784;23;20053;-74
2023/09/07 09:48:55;;;;;;;2.63;2.42;;;;;;;;;;6096427;23;20394;-74
2023/09/07 09:51:21;;;;;;;3.65;2.83;;;;;;;;;;6096433;23;20003;-72
2023/09/07 09:53:49;;;;;;;4.18;2.35;;;28.50;71.10;;;;;;6096036;23;20002;-72
2023/09/07 09:56:16;;;;;;;4.28;3.13;;;;;;;;;;6095984;23;20002;-72
2023/09/07 09:58:43;;;;;;;2.97;2.72;;;;;;;;;;6095749;23;20006;-71
2023/09/07 10:11:55;;;;;;;2.85;2.30;;;;;;;;;;6059204;23;20488;-75
2023/09/07 10:14:21;;;;;;;5.00;2.35;;;;;;;;;;6064851;23;20066;-74
2023/09/07 10:16:52;;;;;;;2.88;2.60;;;29.10;73.50;;;;;;6064829;23;20090;-74
2023/09/07 10:19:20;;;;;;;5.32;2.90;;;29.20;73.40;;;;;;6065096;23;20006;-74
2023/09/07 10:21:47;;;;;;;2.78;2.50;;;;;;;;;;6064709;23;20014;-74
2023/09/07 10:24:35;;;;;;;3.80;2.50;;;29.30;73.20;;;;;;6064845;23;20006;-74
2023/09/07 10:27:09;;;;;;;2.88;2.53;;;29.30;67.30;;;;;;6064445;23;20086;-75
2023/09/07 10:29:46;;;;;;;3.05;2.20;;;29.40;67.40;;;;;;6065007;23;20022;-73
2023/09/07 10:32:14;;;;;;;4.07;2.72;;;;;;;;;;6074242;23;20022;-74
2023/09/07 10:34:44;;;;;;;2.92;2.60;;;;;;;;;;6065051;23;20022;-75
2023/09/07 10:37:14;;;;;;;2.65;2.45;;;29.60;72.80;;;;;;6064962;23;20002;-75
2023/09/07 10:39:44;;;;;;;6.22;2.63;;;29.70;70.90;;;;;;6064412;23;20034;-74
2023/09/07 10:42:33;;;;;;;2.50;2.30;;;29.70;72.40;;;;;;6064570;23;19999;-75
2023/09/07 10:45:12;;;;;;;3.10;2.15;;;29.90;72.70;;;;;;6064613;23;20024;-75
2023/09/07 10:47:43;;;;;;;;;;;29.80;72.40;;;;;;6065281;23;20090;-74
2023/09/07 10:50:13;;;;;;;2.97;2.15;;;29.70;66.40;;;;;;6064945;23;19909;-74
2023/09/07 10:52:40;;;;;;;;;;;30.10;72.40;;;;;;6065268;23;20087;-75
2023/09/07 10:55:06;;;;;;;2.28;2.08;;;;;;;;;;6064645;23;19909;-75
2023/09/07 10:57:44;;;;;;;2.10;1.90;;;30.20;72.00;;;;;;6064454;23;20017;-73
2023/09/07 11:00:11;;;;;;;2.55;2.30;;;28.90;69.20;;;;;;6065344;23;20013;-75
2023/09/07 11:02:38;;;;;;;2.63;2.20;;;30.30;70.00;;;;;;6084271;23;19999;-74
2023/09/07 11:05:05;;;;;;;3.92;2.13;;;30.30;69.30;;;;;;6093151;23;20022;-75
2023/09/07 11:07:32;;;;;;;2.50;2.30;;;;;;;;;;6093010;23;20053;-75
2023/09/07 11:09:59;;;;;;;2.95;2.13;;;;;;;;;;6092141;23;20011;-75
2023/09/07 11:12:25;;;;;;;2.30;2.08;;;;;;;;;;6092796;23;20468;-74
2023/09/07 11:14:52;;;;;;;2.33;2.13;;;;;;;;;;6091883;23;20013;-75
2023/09/07 11:17:19;;;;;;;4.50;2.00;;;;;;;;;;6091664;23;20026;-75
2023/09/07 11:19:52;;;;;;;2.22;1.95;;;30.70;71.40;;;;;;6093018;23;20351;-75
2023/09/07 11:22:19;;;;;;;2.78;1.95;;;;;;;;;;6091835;23;20313;-75
2023/09/07 11:24:46;;;;;;;2.30;2.00;;;30.90;70.80;;;;;;6092909;23;19998;-75
2023/09/07 11:27:12;;;;;;;2.15;1.95;;;;;;;;;;6093389;23;20006;-72
2023/09/07 11:29:39;;;;;;;2.50;2.25;;;;;;;;;;6093187;23;20010;-72
2023/09/07 11:32:07;;;;;;;3.40;1.88;;;31.10;71.20;;;;;;6092127;23;20423;-72
2023/09/07 11:34:33;;;;;;;2.45;2.10;;;;;;;;;;6092288;23;20002;-72
2023/09/07 11:37:00;;;;;;;1.90;1.70;;;;;;;;;;6093492;23;20018;-71
2023/09/07 11:39:26;;;;;;;2.35;2.10;;;;;;;;;;6092874;23;20006;-72
2023/09/07 11:41:53;;;;;;;2.25;2.00;;;;;;;;;;6092960;23;20002;-72
2023/09/07 11:44:19;;;;;;;1.83;1.73;;;;;;;;;;6091672;23;20006;-72
2023/09/07 11:46:46;;;;;;;1.85;1.75;;;;;;;;;;6092825;23;20038;-71
2023/09/07 11:49:13;;;;;;;2.17;1.80;;;;;;;;;;6092946;23;20015;-72
2023/09/07 11:51:40;;;;;;;2.10;1.90;;;;;;;;;;6093509;23;20002;-72
2023/09/07 11:54:06;;;;;;;2.58;1.90;;;;;;;;;;6091567;23;20013;-71
2023/09/07 11:56:35;;;;;;;2.20;1.48;;;;;;;;;;6093677;23;20050;-74
2023/09/07 11:59:01;;;;;;;1.85;1.75;;;;;;;;;;6093245;23;20403;-75
2023/09/07 12:01:28;;;;;;;3.65;1.85;;;;;;;;;;6093332;23;20002;-75
2023/09/07 12:03:55;;;;;;;1.95;1.75;;;;;;;;;;6093378;23;20085;-75
2023/09/07 12:06:23;;;;;;;3.42;1.63;;;;;;;;;;6093616;23;20003;-73
2023/09/07 12:09:02;;;;;;;1.73;1.63;;;31.90;63.80;;;;;;6093021;23;20471;-74
2023/09/07 12:11:30;;;;;;;1.65;1.55;;;;;;;;;;6093080;23;20375;-75
2023/09/07 12:13:57;;;;;;;1.92;1.75;;;;;;;;;;6093181;23;20009;-75
2023/09/07 12:16:23;;;;;;;1.77;1.52;;;;;;;;;;6093057;23;20514;-74
2023/09/07 12:18:50;;;;;;;1.58;1.48;;;;;;;;;;6093443;23;20043;-74
2023/09/07 12:21:16;;;;;;;1.60;1.50;;;;;;;;;;6093280;23;20006;-74
2023/09/07 12:23:43;;;;;;;2.10;1.85;;;;;;;;;;6095917;23;20030;-71
2023/09/07 12:26:09;;;;;;;1.83;1.73;;;;;;;;;;6095315;23;20363;-71
2023/09/07 12:28:36;;;;;;;1.55;1.45;;;;;;;;;;6094883;23;20014;-72
2023/09/07 12:31:02;;;;;;;1.80;1.67;;;;;;;;;;6095352;23;19998;-71
2023/09/07 12:33:30;;;;;;;2.00;1.80;;;;;;;;;;6095459;23;20405;-71
2023/09/07 12:35:56;;;;;;;1.60;1.50;;;;;;;;;;6095428;23;20341;-75
2023/09/07 12:38:27;;;;;;;1.60;1.45;;;;;;;;;;6093533;23;20007;-75
2023/09/07 12:40:53;;;;;;;1.70;1.60;;;;;;;;;;6094815;23;20018;-74
2023/09/07 12:43:20;;;;;;;2.17;1.60;;;;;;;;;;6095109;23;20475;-76
2023/09/07 12:45:47;;;;;;;1.73;1.63;;;;;;;;;;6095162;23;20071;-75
2023/09/07 12:48:13;;;;;;;1.73;1.63;;;;;;;;;;6096680;23;20017;-82
2023/09/07 12:50:40;;;;;;;2.38;1.73;;;;;;;;;;6096489;23;20012;-74
2023/09/07 12:53:07;;;;;;;1.80;1.67;;;;;;;;;;6095534;23;20002;-74
2023/09/07 12:55:34;;;;;;;2.22;1.75;;;;;;;;;;6095052;23;20353;-74
2023/09/07 12:58:00;;;;;;;1.92;1.38;;;;;;;;;;6095156;23;20017;-72
2023/09/07 13:00:28;;;;;;;1.60;1.42;;;;;;;;;;6094648;23;20007;-73
2023/09/07 13:02:56;;;;;;;1.70;1.60;;;;;;;;;;6094867;23;19999;-72
2023/09/07 13:05:22;;;;;;;1.70;1.60;;;;;;;;;;6095085;23;20002;-73
2023/09/07 13:07:49;;;;;;;2.78;1.73;;;;;;;;;;6094397;23;20452;-73
2023/09/07 13:10:15;;;;;;;1.70;1.60;;;;;;;;;;6094795;23;20347;-71
2023/09/07 13:12:42;;;;;;;1.67;1.58;;;;;;;;;;6094458;23;20006;-72
2023/09/07 13:15:08;;;;;;;1.95;1.40;;;;;;;;;;6094458;23;20074;-73
2023/09/07 13:17:35;;;;;;;1.42;1.30;;;;;;;;;;6095120;23;20002;-72
2023/09/07 13:20:01;;;;;;;1.67;1.58;;;;;;;;;;6094472;23;19998;-72
2023/09/07 13:22:28;;;;;;;1.45;1.35;;;;;;;;;;6093809;23;20014;-72
2023/09/07 13:24:55;;;;;;;1.60;1.50;;;;;;;;;;6093773;23;20310;-72
2023/09/07 13:27:21;;;;;;;1.60;1.50;;;;;;;;;;6093784;23;20061;-72
2023/09/07 13:29:48;;;;;;;1.88;1.77;;;;;;;;;;6093647;23;20538;-72
2023/09/07 13:32:14;;;;;;;1.50;1.40;;;;;;;;;;6094520;23;20089;-72
2023/09/07 13:34:41;;;;;;;2.00;1.50;;;;;;;;;;6094120;23;20006;-73
2023/09/07 13:37:07;;;;;;;1.92;1.70;;;;;;;;;;6094522;23;20352;-73
2023/09/07 13:39:34;;;;;;;2.30;1.70;;;;;;;;;;6094639;23;20081;-73
2023/09/07 13:42:00;;;;;;;1.83;1.30;;;;;;;;;;6094653;23;20069;-73
2023/09/07 13:44:26;;;;;;;1.60;1.50;;;;;;;;;;6094287;23;20014;-73
2023/09/07 13:46:54;;;;;;;2.05;1.85;;;;;;;;;;6094416;23;20007;-72
2023/09/07 13:49:21;;;;;;;1.92;1.67;;;;;;;;;;6095161;23;20482;-72
2023/09/07 13:51:47;;;;;;;1.63;1.52;;;;;;;;;;6094139;23;20483;-73
2023/09/07 13:54:14;;;;;;;3.40;1.55;;;;;;;;;;6094251;23;20527;-72
2023/09/07 13:56:42;;;;;;;1.58;1.48;;;;;;;;;;6094236;23;20367;-73
2023/09/07 13:59:08;;;;;;;1.95;1.73;;;;;;;;;;6094065;23;20003;-73
2023/09/07 14:01:35;;;;;;;1.35;1.25;;;;;;;;;;6094168;23;20006;-77
2023/09/07 14:04:01;;;;;;;2.00;1.80;;;;;;;;;;6094962;23;20380;-78
2023/09/07 14:06:28;;;;;;;1.60;1.50;;;;;;;;;;6094330;23;20026;-80
2023/09/07 14:08:54;;;;;;;2.72;1.75;;;;;;;;;;6094550;23;20082;-81
2023/09/07 14:11:22;;;;;;;1.73;1.63;;;;;;;;;;6094391;23;20017;-77
2023/09/07 14:13:51;;;;;;;2.30;1.90;;;;;;;;;;6094641;23;20003;-78
2023/09/07 14:16:21;;;;;;;1.48;1.38;;;33.80;66.00;;;;;;6095217;23;20058;-81
2023/09/07 14:18:47;;;;;;;2.10;1.90;;;;;;;;;;6095063;23;19994;-77
2023/09/07 14:21:15;;;;;;;1.80;1.70;;;34.40;66.00;;;;;;6094581;23;20367;-76
2023/09/07 14:23:42;;;;;;;2.03;1.80;;;;;;;;;;6094012;23;20014;-79
2023/09/07 14:26:09;;;;;;;1.83;1.60;;;;;;;;;;6094451;23;20006;-76
2023/09/07 14:28:37;;;;;;;1.70;1.50;;;;;;;;;;6094401;23;20011;-75